Time;durP1;ratioP1;P1;durP2;ratioP2;P2;SDS_P1;SDS_P2;PMS_P1;PMS_P2;Temp;Humidity;BMP_temperature;BMP_pressure;BME280_temperature;BME280_humidity;BME280_pressure;Samples;Min_cycle;Max_cycle;Signal;HPM_P1;HPM_P2
2022/05/07 00:00:36;;;;;;;2.20;2.00;;;;;;;12.51;69.13;101826.25;5020058;28;20057;-83
2022/05/07 00:03:01;;;;;;;2.55;2.08;;;;;;;12.55;71.00;101832.34;5020900;28;20105;-84
2022/05/07 00:05:27;;;;;;;2.58;2.38;;;;;;;12.55;70.10;101827.09;5020415;28;20025;-83
2022/05/07 00:07:53;;;;;;;2.13;2.03;;;;;;;12.50;71.13;101823.63;5020100;28;20040;-82
2022/05/07 00:10:19;;;;;;;5.97;2.42;;;;;;;12.50;70.63;101819.28;5019859;28;20021;-82
2022/05/07 00:12:44;;;;;;;2.10;1.92;;;;;;;12.43;69.99;101811.47;5020329;28;20029;-84
2022/05/07 00:15:10;;;;;;;3.08;2.03;;;;;;;12.48;68.61;101820.19;5020474;28;20052;-83
2022/05/07 00:20:19;;;;;;;2.17;2.08;;;;;;;12.41;70.51;101813.25;5036654;28;20464;-83
2022/05/07 00:22:44;;;;;;;2.40;2.20;;;;;;;12.34;70.30;101815.03;5036358;28;20029;-84
2022/05/07 00:25:10;;;;;;;2.55;2.28;;;;;;;12.23;69.95;101815.09;5020827;28;20028;-83
2022/05/07 00:27:36;;;;;;;2.25;2.05;;;;;;;12.15;70.68;101816.88;5036850;28;20025;-83
2022/05/07 00:30:02;;;;;;;2.22;2.13;;;;;;;12.11;69.91;101809.91;5020161;28;20037;-84
2022/05/07 00:32:27;;;;;;;2.65;2.30;;;;;;;12.05;70.60;101810.78;5036736;28;20043;-84
2022/05/07 00:34:53;;;;;;;2.20;2.10;;;;;;;12.02;71.18;101809.94;5036476;28;20116;-83
2022/05/07 00:37:18;;;;;;;2.38;2.17;;;;;;;12.02;70.84;101812.56;5019762;28;20473;-84
2022/05/07 00:39:43;;;;;;;2.45;2.20;;;;;;;12.05;71.41;101808.16;5020251;28;20022;-83
2022/05/07 00:42:09;;;;;;;2.22;2.08;;;;;;;12.12;70.49;101809.00;5020220;28;20044;-83
2022/05/07 00:44:34;;;;;;;3.58;2.40;;;;;;;12.10;72.21;101808.16;5037095;28;20032;-84
2022/05/07 00:47:16;;;;;;;2.25;2.05;;;;;;;12.06;71.84;101807.28;5037252;28;20017;-83
2022/05/07 00:49:43;;;;;;;1.92;1.83;;;;;;;12.09;70.63;101816.88;5021206;28;20029;-83
2022/05/07 00:52:09;;;;;;;2.83;2.63;;;;;;;12.11;71.08;101820.38;5039035;28;20432;-82
2022/05/07 00:54:34;;;;;;;2.15;2.05;;;;;;;12.08;71.44;101812.50;5017904;28;20025;-82
2022/05/07 00:57:00;;;;;;;2.30;2.17;;;;;;;12.07;72.76;101814.28;5018381;28;20384;-83
2022/05/07 00:59:25;;;;;;;2.13;1.98;;;;;;;12.02;72.89;101809.94;5017926;28;20079;-83
2022/05/07 01:01:51;;;;;;;2.25;2.15;;;;;;;12.03;72.78;101809.06;5017456;28;20056;-83
2022/05/07 01:04:16;;;;;;;5.20;2.08;;;;;;;12.04;73.35;101808.16;5017920;28;20033;-83
2022/05/07 01:06:41;;;;;;;2.35;2.17;;;;;;;11.99;73.09;101800.34;5017563;28;20026;-83
2022/05/07 01:09:07;;;;;;;3.47;2.53;;;;;;;12.00;72.47;101800.34;5017361;28;20053;-83
2022/05/07 01:11:33;;;;;;;3.00;2.25;;;;;;;12.00;71.56;101797.72;5016968;28;20516;-83
2022/05/07 01:13:58;;;;;;;2.33;2.22;;;;;;;12.07;71.85;101802.94;5017516;28;20112;-83
2022/05/07 01:16:24;;;;;;;2.70;2.50;;;;;;;12.06;72.37;101803.81;5034157;28;20029;-82
2022/05/07 01:18:49;;;;;;;2.47;2.38;;;;;;;12.04;72.11;101797.69;5017551;28;20029;-82
2022/05/07 01:21:17;;;;;;;3.17;2.97;;;;;;;12.01;71.22;101793.34;5017189;28;20409;-82
2022/05/07 01:23:43;;;;;;;3.10;2.70;;;;;;;11.94;72.10;101797.75;5017201;28;20120;-83
2022/05/07 01:26:09;;;;;;;3.63;3.38;;;;;;;11.91;72.64;101802.94;5017118;28;20021;-83
2022/05/07 01:28:35;;;;;;;4.22;3.83;;;;;;;11.90;72.15;101805.59;5017458;28;20025;-81
2022/05/07 01:31:00;;;;;;;3.80;3.50;;;;;;;11.82;72.32;101795.13;5017556;28;20095;-82
2022/05/07 01:33:26;;;;;;;8.63;4.20;;;;;;;11.76;72.07;101795.16;5017136;28;20021;-82
2022/05/07 01:35:51;;;;;;;5.05;4.57;;;;;;;11.67;73.14;101799.56;5016641;28;20029;-82
2022/05/07 01:38:17;;;;;;;8.52;5.07;;;;;;;11.63;72.66;101792.59;5032912;28;20025;-82
2022/05/07 01:40:42;;;;;;;6.57;5.10;;;;;;;11.63;73.15;101792.59;5033159;28;20031;-83
2022/05/07 01:43:08;;;;;;;5.75;5.35;;;;;;;11.61;71.86;101789.09;5032767;28;20017;-83
2022/05/07 01:45:33;;;;;;;8.18;6.13;;;;;;;11.61;72.01;101791.72;5033280;28;20017;-83
2022/05/07 01:48:10;;;;;;;6.43;5.82;;;;;;;11.58;72.19;101788.25;5016594;28;20083;-83
2022/05/07 01:50:38;;;;;;;8.68;6.40;;;;;;;11.57;72.40;101792.59;5017796;28;20061;-83
2022/05/07 01:53:04;;;;;;;7.30;6.63;;;;;;;11.54;72.06;101778.69;5016685;28;20037;-83
2022/05/07 01:55:29;;;;;;;7.93;7.07;;;;;;;11.50;72.12;101785.66;5016243;28;20463;-83
2022/05/07 01:57:55;;;;;;;6.70;6.10;;;;;;;11.37;72.57;101786.56;5033045;28;20021;-83
2022/05/07 02:00:20;;;;;;;6.63;6.10;;;;;;;11.41;72.43;101785.66;5032590;28;20488;-83
2022/05/07 02:02:46;;;;;;;6.25;5.75;;;;;;;11.38;72.69;101780.44;5016407;28;20076;-83
2022/05/07 02:05:11;;;;;;;7.22;6.50;;;;;;;11.38;72.48;101783.94;5032758;28;20075;-83
2022/05/07 02:07:36;;;;;;;7.07;6.60;;;;;;;11.42;72.09;101792.66;5031193;28;20071;-83
2022/05/07 02:10:02;;;;;;;9.88;6.82;;;;;;;11.36;72.88;101787.41;5031947;28;20030;-82
2022/05/07 02:12:27;;;;;;;7.10;6.50;;;;;;;11.37;72.84;101789.16;5015958;28;20021;-83
2022/05/07 02:14:53;;;;;;;7.32;6.60;;;;;;;11.32;73.13;101782.19;5032279;28;20029;-83
2022/05/07 02:17:18;;;;;;;7.05;6.55;;;;;;;11.30;72.91;101789.19;5015895;28;20028;-82
2022/05/07 02:19:43;;;;;;;6.72;6.25;;;;;;;11.29;73.49;101784.81;5015938;28;20029;-83
2022/05/07 02:22:09;;;;;;;6.35;5.90;;;;;;;11.27;73.02;101783.09;5015495;28;20539;-83
2022/05/07 02:24:34;;;;;;;7.10;6.15;;;;;;;11.22;73.75;101780.50;5015437;28;20473;-82
2022/05/07 02:27:00;;;;;;;7.28;6.70;;;;;;;11.25;73.97;101790.94;5015684;28;20017;-82
2022/05/07 02:29:25;;;;;;;7.40;6.70;;;;;;;11.22;73.78;101790.94;5015803;28;20034;-83
2022/05/07 02:32:06;;;;;;;10.48;7.35;;;;;;;11.20;73.60;101779.59;5015502;28;20021;-83
2022/05/07 02:34:36;;;;;;;9.27;6.70;;;;;;;11.23;73.17;101790.06;5032354;28;20025;-83
2022/05/07 02:37:02;;;;;;;7.90;6.32;;;;;;;11.19;73.48;101785.69;5032362;28;20024;-82
2022/05/07 02:39:28;;;;;;;7.10;6.50;;;;;;;11.19;73.61;101780.47;5015991;28;20049;-82
2022/05/07 02:44:37;;;;;;;6.50;5.90;;;;;;;11.04;73.89;101785.72;5032388;28;20113;-83
2022/05/07 02:47:04;;;;;;;6.57;5.97;;;;;;;10.99;73.65;101789.22;5032226;28;20112;-83
2022/05/07 02:49:30;;;;;;;8.38;5.57;;;;;;;10.93;73.63;101791.81;5032527;28;20026;-83
2022/05/07 02:51:55;;;;;;;5.70;5.25;;;;;;;10.85;73.97;101790.09;5015700;28;20444;-83
2022/05/07 02:54:21;;;;;;;4.43;4.00;;;;;;;10.73;74.41;101794.44;5032572;28;20022;-82
2022/05/07 02:56:46;;;;;;;6.07;4.28;;;;;;;10.60;74.69;101785.72;5032486;28;20113;-83
2022/05/07 02:59:11;;;;;;;4.70;4.40;;;;;;;10.62;74.60;101788.31;5016110;28;20029;-82
2022/05/07 03:01:36;;;;;;;5.15;4.72;;;;;;;10.63;74.17;101793.56;5032452;28;20135;-84
2022/05/07 03:04:02;;;;;;;5.30;4.72;;;;;;;10.69;74.27;101792.72;5016002;28;20029;-83
2022/05/07 03:06:27;;;;;;;10.20;4.95;;;;;;;10.77;74.05;101796.19;5016123;28;20056;-83
2022/05/07 03:08:52;;;;;;;5.30;4.80;;;;;;;10.74;73.61;101798.78;5032866;28;20030;-83
2022/05/07 03:11:18;;;;;;;5.15;4.75;;;;;;;10.71;73.54;101784.88;5015572;28;20029;-83
2022/05/07 03:13:43;;;;;;;6.15;5.60;;;;;;;10.78;74.41;101799.66;5016129;28;20044;-84
2022/05/07 03:16:09;;;;;;;5.38;5.00;;;;;;;10.75;73.68;101795.31;5016521;28;20512;-82
2022/05/07 03:18:35;;;;;;;5.90;5.40;;;;;;;10.84;73.65;101791.84;5015880;28;20029;-83
2022/05/07 03:21:01;;;;;;;7.30;6.80;;;;;;;10.81;73.03;101791.81;5019798;28;20084;-83
2022/05/07 03:23:26;;;;;;;7.75;7.03;;;;;;;10.86;73.25;101786.63;5020128;28;20025;-83
2022/05/07 03:25:52;;;;;;;7.55;7.05;;;;;;;10.92;73.46;101797.94;5020179;28;20060;-83
2022/05/07 03:28:18;;;;;;;8.38;7.55;;;;;;;10.96;73.24;101789.22;5035886;28;20044;-83
2022/05/07 03:30:43;;;;;;;11.35;10.27;;;;;;;10.94;72.72;101792.72;5019332;28;20057;-83
2022/05/07 03:33:08;;;;;;;9.65;8.85;;;;;;;10.97;73.14;101780.50;5019334;28;20022;-83
2022/05/07 03:35:34;;;;;;;9.55;8.75;;;;;;;11.00;73.40;101782.22;5019029;28;20444;-83
2022/05/07 03:37:59;;;;;;;9.75;8.88;;;;;;;10.95;73.75;101792.72;5019811;28;20067;-83
2022/05/07 03:40:24;;;;;;;9.85;9.05;;;;;;;10.92;73.90;101787.50;5036429;28;20067;-83
2022/05/07 03:42:50;;;;;;;11.27;10.27;;;;;;;10.96;73.41;101784.00;5036049;28;20080;-83
2022/05/07 03:45:15;;;;;;;11.90;10.75;;;;;;;11.02;73.46;101783.13;5019790;28;20029;-83
2022/05/07 03:47:40;;;;;;;12.82;11.63;;;;;;;11.06;73.02;101781.38;5019060;28;20025;-83
2022/05/07 03:50:06;;;;;;;11.35;10.23;;;;;;;10.95;73.32;101782.25;5035986;28;20469;-83
2022/05/07 03:55:16;;;;;;;11.73;10.40;;;;;;;10.88;74.14;101783.13;5036032;28;20036;-83
2022/05/07 03:57:41;;;;;;;11.77;10.70;;;;;;;10.88;74.29;101793.59;5018496;28;20385;-83
2022/05/07 04:00:07;;;;;;;11.88;10.68;;;;;;;10.82;74.32;101790.97;5034875;28;20055;-83
2022/05/07 04:02:35;;;;;;;11.75;10.68;;;;;;;10.80;74.97;101787.50;5019755;28;20045;-84
2022/05/07 04:05:01;;;;;;;11.82;10.63;;;;;;;10.82;74.74;101790.97;5019010;28;20021;-83
2022/05/07 04:07:26;;;;;;;12.02;10.82;;;;;;;10.72;75.11;101789.22;5034875;28;20499;-83
2022/05/07 04:09:54;;;;;;;12.40;11.30;;;;;;;10.76;74.62;101788.34;5034770;28;20079;-83
2022/05/07 04:12:20;;;;;;;13.13;11.88;;;;;;;10.76;75.15;101791.84;5017803;28;20021;-83
2022/05/07 04:14:45;;;;;;;13.85;11.65;;;;;;;10.75;74.82;101802.28;5036001;28;20485;-83
2022/05/07 04:17:10;;;;;;;13.27;11.75;;;;;;;10.74;74.95;101796.16;5018538;28;20018;-83
2022/05/07 04:19:36;;;;;;;13.25;11.95;;;;;;;10.76;75.25;101793.59;5019045;28;20033;-83
2022/05/07 04:22:02;;;;;;;14.02;12.50;;;;;;;10.71;75.40;101797.94;5018713;28;20396;-83
2022/05/07 04:24:27;;;;;;;13.82;12.40;;;;;;;10.69;76.09;101800.53;5035502;28;20055;-83
2022/05/07 04:26:52;;;;;;;14.93;13.00;;;;;;;10.68;75.88;101792.72;5019873;28;20014;-84
2022/05/07 04:29:18;;;;;;;13.18;11.82;;;;;;;10.67;75.93;101796.19;5019005;28;20033;-83
2022/05/07 04:31:44;;;;;;;14.13;12.15;;;;;;;10.67;75.86;101797.03;5018620;28;20025;-83
2022/05/07 04:34:09;;;;;;;15.25;12.57;;;;;;;10.74;75.65;101803.16;5019141;28;20033;-83
2022/05/07 04:36:35;;;;;;;15.75;12.80;;;;;;;10.74;75.20;101796.16;5019231;28;20030;-83
2022/05/07 04:39:00;;;;;;;13.32;12.05;;;;;;;10.77;75.46;101804.03;5020245;28;20023;-84
2022/05/07 04:41:25;;;;;;;14.32;12.73;;;;;;;10.80;75.77;101795.31;5019101;28;20032;-83
2022/05/07 04:43:51;;;;;;;13.63;12.25;;;;;;;10.84;76.00;101799.69;5019829;28;20028;-85
2022/05/07 04:46:17;;;;;;;14.05;12.63;;;;;;;10.77;76.13;101795.31;5020312;28;20081;-85
2022/05/07 04:48:43;;;;;;;14.13;11.98;;;;;;;10.79;76.45;101804.91;5037859;28;20017;-84
2022/05/07 04:51:08;;;;;;;13.98;11.25;;;;;;;10.76;76.45;101801.44;5020009;28;20021;-85
2022/05/07 04:53:33;;;;;;;12.25;11.15;;;;;;;10.80;76.73;101808.41;5019576;28;20353;-84
2022/05/07 04:55:59;;;;;;;14.25;11.13;;;;;;;10.81;76.93;101805.78;5053194;28;20029;-84
2022/05/07 04:58:24;;;;;;;13.10;11.75;;;;;;;10.90;76.84;101807.50;5038429;28;20461;-84
2022/05/07 05:00:49;;;;;;;13.60;11.70;;;;;;;10.99;76.53;101809.28;5038419;28;20408;-84
2022/05/07 05:03:15;;;;;;;13.23;11.93;;;;;;;11.09;76.49;101805.75;5027845;28;20035;-84
2022/05/07 05:05:41;;;;;;;12.88;11.60;;;;;;;11.24;74.39;101804.03;5055110;28;20099;-84
2022/05/07 05:08:07;;;;;;;13.70;12.00;;;;;;;11.42;73.96;101797.88;5038189;28;20013;-84
2022/05/07 05:10:32;;;;;;;13.55;12.15;;;;;;;11.61;73.02;101793.47;5038855;28;20029;-84
2022/05/07 05:12:58;;;;;;;14.48;12.25;;;;;;;11.77;71.91;101805.63;5039186;28;20118;-84
2022/05/07 05:15:23;;;;;;;20.63;15.43;;;;;;;11.95;72.33;101801.25;5039812;28;20029;-83
2022/05/07 05:17:48;;;;;;;15.27;13.70;;;;;;;12.09;72.48;101806.41;5039493;28;20023;-84
2022/05/07 05:20:14;;;;;;;20.48;14.18;;;;;;;12.19;73.92;101808.13;5039046;28;20088;-84
2022/05/07 05:22:48;;;;;;;22.52;16.35;;;;;;;12.28;72.71;101809.81;5040518;28;20080;-85
2022/05/07 05:25:14;;;;;;;19.10;15.80;;;;;;;12.36;73.57;101812.38;5039183;28;20079;-83
2022/05/07 05:27:39;;;;;;;21.17;15.85;;;;;;;12.41;73.93;101816.72;5039181;28;20455;-83
2022/05/07 05:30:05;;;;;;;16.05;14.30;;;;;;;12.47;73.51;101824.53;5039248;28;20068;-85
2022/05/07 05:32:31;;;;;;;17.60;14.50;;;;;;;12.54;73.19;101827.13;5055755;28;20029;-85
2022/05/07 05:34:56;;;;;;;17.60;13.85;;;;;;;12.58;74.13;101821.84;5055045;28;20108;-84
2022/05/07 05:37:21;;;;;;;15.98;13.95;;;;;;;12.61;72.90;101821.84;5038828;28;20499;-83
2022/05/07 05:39:47;;;;;;;18.25;14.55;;;;;;;12.67;72.17;101827.03;5038675;28;20051;-85
2022/05/07 05:42:13;;;;;;;19.55;15.77;;;;;;;12.70;73.45;101825.28;5037909;28;20033;-83
2022/05/07 05:44:39;;;;;;;20.20;15.60;;;;;;;12.73;74.07;101828.72;5056660;28;20029;-82
2022/05/07 05:47:06;;;;;;;20.02;15.60;;;;;;;12.75;72.67;101828.72;5054095;28;20021;-83
2022/05/07 05:49:33;;;;;;;21.17;15.93;;;;;;;12.73;72.41;101828.72;5037565;28;20037;-82
2022/05/07 05:51:58;;;;;;;20.42;16.45;;;;;;;12.78;72.43;101831.34;5037587;28;20020;-83
2022/05/07 05:54:24;;;;;;;20.23;15.98;;;;;;;12.82;72.85;101830.44;5054556;28;20510;-84
2022/05/07 05:56:50;;;;;;;19.67;16.60;;;;;;;12.86;72.53;101842.63;5036258;28;20436;-83
2022/05/07 05:59:15;;;;;;;20.48;15.93;;;;;;;12.84;71.75;101845.28;5052839;28;20032;-83
2022/05/07 06:01:41;;;;;;;27.52;18.60;;;;;;;12.89;71.20;101842.59;5035281;28;20033;-83
2022/05/07 06:04:07;;;;;;;22.55;18.10;;;;;;;12.92;70.95;101841.72;5051971;28;20392;-82
2022/05/07 06:06:32;;;;;;;20.30;16.42;;;;;;;12.94;71.48;101846.06;5051901;28;20066;-83
2022/05/07 06:08:58;;;;;;;26.65;17.67;;;;;;;12.94;71.06;101848.69;5035527;28;20029;-82
2022/05/07 06:11:23;;;;;;;23.70;16.55;;;;;;;12.97;70.56;101851.28;5034249;28;20078;-83
2022/05/07 06:13:48;;;;;;;24.25;17.20;;;;;;;12.97;69.99;101847.81;5034748;28;20028;-84
2022/05/07 06:16:14;;;;;;;22.98;17.33;;;;;;;12.99;70.16;101849.53;5034734;28;20027;-82
2022/05/07 06:18:40;;;;;;;25.05;18.23;;;;;;;12.95;70.04;101847.81;5034804;28;20048;-83
2022/05/07 06:21:05;;;;;;;20.67;16.17;;;;;;;12.98;70.56;101855.66;5034355;28;20063;-82
2022/05/07 06:23:30;;;;;;;25.88;17.25;;;;;;;13.04;70.41;101852.09;5051322;28;20043;-84
2022/05/07 06:28:41;;;;;;;21.20;15.60;;;;;;;13.08;70.36;101858.22;5051337;28;20502;-82
2022/05/07 06:31:07;;;;;;;23.38;16.23;;;;;;;13.00;69.23;101861.75;5034410;28;20047;-86
2022/05/07 06:33:32;;;;;;;17.02;15.10;;;;;;;12.96;68.89;101861.78;5034467;28;20025;-85
2022/05/07 06:35:57;;;;;;;21.42;14.07;;;;;;;12.94;69.39;101855.66;5050703;28;20033;-85
2022/05/07 06:38:23;;;;;;;19.35;14.30;;;;;;;12.98;69.72;101862.66;5034432;28;20025;-84
2022/05/07 06:40:50;;;;;;;17.75;14.35;;;;;;;13.02;68.41;101862.63;5034128;28;20075;-83
2022/05/07 06:43:15;;;;;;;16.58;13.35;;;;;;;13.06;68.91;101862.59;5034358;28;20036;-85
2022/05/07 06:45:41;;;;;;;17.08;11.98;;;;;;;13.10;70.57;101861.69;5050713;28;20028;-83
2022/05/07 06:48:08;;;;;;;16.05;13.02;;;;;;;13.17;69.39;101871.22;5033320;28;20443;-81
2022/05/07 06:50:34;;;;;;;17.52;11.82;;;;;;;13.19;69.08;101866.84;5033984;28;20087;-82
2022/05/07 06:53:00;;;;;;;11.75;10.52;;;;;;;13.22;68.93;101863.34;5035016;28;20029;-81
2022/05/07 06:55:25;;;;;;;13.63;9.90;;;;;;;13.25;68.22;101865.94;5038439;28;20068;-85
2022/05/07 06:57:53;;;;;;;11.52;10.35;;;;;;;13.28;66.85;101869.41;5049717;28;20019;-82
2022/05/07 07:00:18;;;;;;;10.32;9.07;;;;;;;13.25;66.77;101866.81;5051630;28;20025;-84
2022/05/07 07:02:43;;;;;;;9.25;8.38;;;;;;;13.19;66.30;101874.72;5034675;28;20135;-83
2022/05/07 07:05:10;;;;;;;11.32;8.32;;;;;;;13.14;66.86;101873.88;5051845;28;20470;-84
2022/05/07 07:07:35;;;;;;;10.90;7.53;;;;;;;13.15;66.26;101876.50;5034982;28;20022;-82
2022/05/07 07:10:00;;;;;;;8.77;7.68;;;;;;;13.16;66.37;101877.38;5034803;28;20033;-83
2022/05/07 07:12:26;;;;;;;10.85;7.60;;;;;;;13.27;66.24;101874.66;5034546;28;20029;-83
2022/05/07 07:14:51;;;;;;;8.32;6.55;;;;;;;13.38;67.12;101877.22;5035045;28;20028;-82
2022/05/07 07:17:17;;;;;;;8.55;7.38;;;;;;;13.65;64.57;101879.59;5035224;28;20018;-86
2022/05/07 07:19:43;;;;;;;7.35;6.50;;;;;;;13.78;64.34;101882.06;5051658;28;20029;-83
2022/05/07 07:22:09;;;;;;;6.22;5.82;;;;;;;13.71;65.12;101875.16;5051815;28;20067;-82
2022/05/07 07:24:34;;;;;;;5.07;4.60;;;;;;;13.83;63.97;101888.16;5035004;28;20049;-83
2022/05/07 07:26:59;;;;;;;6.32;5.38;;;;;;;13.88;63.36;101882.84;5051905;28;20017;-83
2022/05/07 07:29:25;;;;;;;3.60;3.30;;;;;;;13.90;62.10;101887.19;5035014;28;20037;-82
2022/05/07 07:31:50;;;;;;;3.53;3.13;;;;;;;13.91;61.79;101888.09;5018134;28;20071;-83
2022/05/07 07:34:16;;;;;;;3.28;2.95;;;;;;;13.89;61.96;101882.81;5018546;28;20021;-82
2022/05/07 07:36:44;;;;;;;3.00;2.80;;;;;;;13.87;63.08;101881.97;5034962;28;20029;-83
2022/05/07 07:39:10;;;;;;;4.15;3.47;;;;;;;13.90;62.65;101891.59;5035367;28;20546;-82
2022/05/07 07:41:35;;;;;;;5.68;4.28;;;;;;;13.94;62.85;101894.16;5051672;28;20107;-82
2022/05/07 07:44:01;;;;;;;4.97;4.50;;;;;;;14.03;63.52;101896.69;5034710;28;20052;-82
2022/05/07 07:49:10;;;;;;;5.28;4.80;;;;;;;14.05;62.83;101898.44;5049270;28;20401;-83
2022/05/07 07:51:36;;;;;;;6.13;4.75;;;;;;;14.14;62.46;101896.56;5034599;28;20030;-82
2022/05/07 07:54:01;;;;;;;4.72;4.32;;;;;;;14.23;61.24;101894.69;5035318;28;20032;-83
2022/05/07 07:56:26;;;;;;;5.65;3.47;;;;;;;14.27;61.49;101892.00;5051875;28;20029;-83
2022/05/07 07:58:52;;;;;;;3.97;3.55;;;;;;;14.33;61.79;101891.09;5051668;28;20481;-83
2022/05/07 08:01:17;;;;;;;5.30;4.80;;;;;;;14.41;61.07;101890.97;5051018;28;20393;-83
2022/05/07 08:03:43;;;;;;;5.60;3.75;;;;;;;14.47;59.87;101893.53;5034700;28;20037;-83
2022/05/07 08:06:08;;;;;;;4.15;3.75;;;;;;;14.58;60.99;101896.00;5034003;28;20072;-83
2022/05/07 08:14:15;;;;;;;6.35;3.10;;;;;;;14.93;58.72;101892.91;5025206;28;20041;-83
2022/05/07 08:16:44;;;;;;;2.95;2.25;;;;;;;14.93;58.41;101882.38;5035348;28;20022;-83
2022/05/07 08:19:09;;;;;;;3.35;3.05;;;;;;;15.02;58.54;101891.88;5034959;28;20083;-84
2022/05/07 08:21:35;;;;;;;4.50;3.22;;;;;;;14.96;59.06;101884.09;5034931;28;20033;-83
2022/05/07 08:24:01;;;;;;;3.88;3.28;;;;;;;14.94;58.88;101894.59;5034893;28;20022;-83
2022/05/07 08:26:26;;;;;;;3.92;3.63;;;;;;;14.88;58.76;101902.63;5034729;28;20074;-83
2022/05/07 08:28:52;;;;;;;6.75;3.67;;;;;;;14.77;57.98;101897.50;5018089;28;20055;-83
2022/05/07 08:31:18;;;;;;;3.38;3.17;;;;;;;14.69;59.87;101900.25;5034972;28;20029;-82
2022/05/07 08:33:43;;;;;;;4.10;3.80;;;;;;;14.62;59.68;101898.56;5034965;28;20116;-83
2022/05/07 08:36:10;;;;;;;5.57;4.32;;;;;;;14.61;60.17;101904.69;5049106;28;20530;-83
2022/05/07 08:38:36;;;;;;;4.15;3.83;;;;;;;14.61;60.73;101912.59;5037725;28;20491;-82
2022/05/07 08:41:01;;;;;;;7.70;3.67;;;;;;;14.71;61.36;101918.63;5038148;28;20036;-82
2022/05/07 08:43:36;;;;;;;5.07;3.97;;;;;;;14.75;60.92;101906.31;5038410;28;20036;-82
2022/05/07 08:46:06;;;;;;;4.70;4.30;;;;;;;14.82;61.95;101915.84;5038817;28;20524;-83
2022/05/07 08:48:31;;;;;;;6.32;4.65;;;;;;;14.90;61.30;101923.63;5037840;28;20075;-83
2022/05/07 08:50:56;;;;;;;5.97;5.45;;;;;;;14.89;60.21;101914.88;5037181;28;20025;-82
2022/05/07 08:53:22;;;;;;;5.35;4.50;;;;;;;14.97;61.05;101925.28;5053648;28;20151;-82
2022/05/07 08:55:54;;;;;;;6.03;4.97;;;;;;;15.03;60.38;101920.78;5038659;28;20024;-83
2022/05/07 08:58:20;;;;;;;9.20;5.47;;;;;;;15.23;60.36;101919.63;5038234;28;20017;-83
2022/05/07 09:00:45;;;;;;;5.68;4.97;;;;;;;15.36;60.37;101913.22;5053781;28;20408;-83
2022/05/07 09:03:15;;;;;;;5.82;5.18;;;;;;;15.46;60.02;101907.81;5054864;28;20025;-83
2022/05/07 09:05:40;;;;;;;5.20;4.68;;;;;;;15.49;59.23;101913.91;5037318;28;20024;-83
2022/05/07 09:08:07;;;;;;;6.78;5.07;;;;;;;15.53;60.62;101910.31;5054082;28;20094;-83
2022/05/07 09:10:33;;;;;;;5.05;4.57;;;;;;;15.53;60.20;101910.31;5037211;28;20021;-83
2022/05/07 09:13:15;;;;;;;4.55;4.15;;;;;;;15.49;59.25;101918.31;5036875;28;20028;-83
2022/05/07 09:15:58;;;;;;;5.15;4.35;;;;;;;15.52;59.15;101915.63;5036728;28;20096;-83
2022/05/07 09:18:24;;;;;;;5.20;4.80;;;;;;;15.50;58.94;101915.66;5035563;28;20047;-83
2022/05/07 09:21:16;;;;;;;5.28;4.50;;;;;;;15.58;58.80;101912.88;5053549;28;20025;-84
2022/05/07 09:24:00;;;;;;;5.35;3.88;;;;;;;15.72;58.63;101910.88;5039050;28;20028;-84
2022/05/07 09:26:31;;;;;;;3.95;3.55;;;;;;;15.67;56.85;101907.44;5054406;28;20028;-87
2022/05/07 09:28:57;;;;;;;3.92;3.63;;;;;;;15.69;57.65;101910.94;5037395;28;20021;-82
2022/05/07 09:31:26;;;;;;;3.03;2.80;;;;;;;15.64;55.97;101907.50;5053009;28;20036;-84
2022/05/07 09:33:53;;;;;;;3.90;3.58;;;;;;;15.63;55.57;101910.16;5037188;28;20146;-82
2022/05/07 09:36:18;;;;;;;3.70;3.40;;;;;;;15.52;56.80;101913.00;5036026;28;20477;-83
2022/05/07 09:38:44;;;;;;;3.42;3.05;;;;;;;15.52;56.04;101920.91;5027288;28;20040;-84
2022/05/07 09:41:21;;;;;;;3.88;2.20;;;;;;;15.50;55.66;101914.75;5045922;28;20029;-85
2022/05/07 09:43:50;;;;;;;4.63;2.70;;;;;;;15.50;56.96;101920.03;5036744;28;20025;-84
2022/05/07 09:46:16;;;;;;;5.60;2.90;;;;;;;15.61;55.82;101915.47;5025915;28;20405;-84
2022/05/07 09:48:42;;;;;;;4.65;3.33;;;;;;;15.67;55.95;101912.72;5033438;28;20023;-89
2022/05/07 09:51:10;;;;;;;3.15;2.85;;;;;;;15.72;56.71;101916.13;5032764;28;20025;-85
2022/05/07 09:59:04;;;;;;;4.13;3.72;;;;;;;15.62;56.89;101898.75;5038714;28;20148;-84
2022/05/07 10:02:13;;;;;;;5.95;4.25;;;;;;;15.73;57.39;101895.91;5037028;28;20025;-85
2022/05/07 10:05:33;;;;;;;10.60;5.35;;;;;;;15.98;56.78;101906.00;5040113;28;20024;-85
2022/05/07 10:08:21;;;;;;;4.50;4.10;;;;;;;16.27;56.50;101897.53;5033030;28;20021;-84
2022/05/07 10:10:48;;;;;;;5.25;4.70;;;;;;;16.68;54.99;101902.81;5019494;28;20076;-84
2022/05/07 10:13:18;;;;;;;4.80;4.25;;;;;;;16.85;56.30;101905.06;5039023;28;20017;-86
2022/05/07 10:15:58;;;;;;;4.82;4.45;;;;;;;16.85;53.57;101899.78;5017766;28;20404;-84
2022/05/07 10:18:36;;;;;;;3.95;3.60;;;;;;;16.71;55.98;101902.75;5034964;28;20018;-83
2022/05/07 10:21:15;;;;;;;2.22;2.00;;;;;;;16.60;54.10;101905.63;5017656;28;20029;-84
2022/05/07 10:23:58;;;;;;;2.42;2.22;;;;;;;16.71;54.47;101908.91;5034477;28;20029;-83
2022/05/07 10:26:36;;;;;;;2.75;2.35;;;;;;;16.79;55.07;101910.47;5033306;28;20028;-83
2022/05/07 10:29:03;;;;;;;5.47;3.10;;;;;;;16.53;54.45;101909.28;5018122;28;20025;-83
2022/05/07 10:31:29;;;;;;;6.07;3.03;;;;;;;16.35;53.83;101910.56;5033890;28;20080;-84
2022/05/07 10:33:55;;;;;;;3.45;3.15;;;;;;;16.37;55.02;101903.47;5032867;28;20032;-82
2022/05/07 10:36:21;;;;;;;3.08;2.80;;;;;;;16.70;55.78;101901.88;5033063;28;20028;-84
2022/05/07 10:38:47;;;;;;;4.30;3.30;;;;;;;16.96;53.61;101904.84;5033747;28;20063;-84
2022/05/07 10:41:13;;;;;;;4.47;4.18;;;;;;;16.93;51.79;101903.13;5017196;28;20049;-83
2022/05/07 10:43:46;;;;;;;4.53;4.13;;;;;;;16.94;53.19;101899.59;5032972;28;20535;-83
2022/05/07 10:46:16;;;;;;;3.75;3.45;;;;;;;17.11;53.50;101907.13;5017804;28;20060;-84
2022/05/07 10:48:45;;;;;;;4.30;4.00;;;;;;;17.19;54.01;101899.00;5017368;28;20042;-83
2022/05/07 10:51:26;;;;;;;6.18;3.47;;;;;;;17.21;52.09;101903.34;5033397;28;20029;-83
2022/05/07 10:53:51;;;;;;;10.20;4.25;;;;;;;17.18;51.53;101898.13;5033864;28;20029;-82
2022/05/07 10:56:20;;;;;;;4.38;4.00;;;;;;;17.15;52.40;101894.69;5033645;28;20028;-82
2022/05/07 10:58:47;;;;;;;5.57;5.07;;;;;;;17.14;54.02;101892.97;5033566;28;20075;-83
2022/05/07 11:01:12;;;;;;;6.38;5.72;;;;;;;17.23;54.18;101903.28;5031905;28;20033;-84
2022/05/07 11:03:39;;;;;;;5.80;5.20;;;;;;;17.29;53.13;101903.16;5031572;28;20033;-83
2022/05/07 11:06:04;;;;;;;5.65;5.15;;;;;;;17.14;54.37;101896.47;5032125;28;20389;-82
2022/05/07 11:08:30;;;;;;;4.07;3.67;;;;;;;17.28;53.19;101897.91;5015737;28;20029;-83
2022/05/07 11:11:11;;;;;;;3.70;3.50;;;;;;;17.33;54.43;101902.16;5031493;28;20029;-84
2022/05/07 11:13:50;;;;;;;3.63;3.33;;;;;;;17.38;50.47;101900.28;5015235;28;20086;-84
2022/05/07 11:16:19;;;;;;;3.58;3.28;;;;;;;17.26;51.82;101905.00;5014967;28;20044;-83
2022/05/07 11:18:51;;;;;;;4.28;3.17;;;;;;;17.09;52.08;101902.78;5031415;28;20047;-83
2022/05/07 11:21:21;;;;;;;6.53;2.80;;;;;;;16.88;50.19;101907.66;5030927;28;20396;-82
2022/05/07 11:23:57;;;;;;;3.50;3.20;;;;;;;16.70;51.04;101896.59;5031088;28;20030;-83
2022/05/07 11:26:24;;;;;;;3.08;2.70;;;;;;;16.56;50.34;101898.66;5014621;28;20440;-82
2022/05/07 11:28:51;;;;;;;4.43;4.03;;;;;;;16.56;52.24;101901.31;5031173;28;20025;-83
2022/05/07 11:31:32;;;;;;;6.38;3.55;;;;;;;16.51;52.64;101893.50;5014530;28;20026;-83
2022/05/07 11:34:05;;;;;;;4.85;3.88;;;;;;;16.53;52.89;101898.75;5033903;28;20025;-83
2022/05/07 11:36:31;;;;;;;4.70;4.10;;;;;;;16.48;51.64;101893.56;5030558;28;20027;-83
2022/05/07 11:38:58;;;;;;;5.28;4.20;;;;;;;16.56;52.59;101899.56;5035140;28;20017;-82
2022/05/07 11:41:24;;;;;;;4.93;4.53;;;;;;;16.63;53.19;101897.63;5036112;28;20025;-83
2022/05/07 11:46:34;;;;;;;5.47;4.55;;;;;;;16.52;52.91;101891.72;5053939;28;20399;-83